sensor_id;sensor_type;location;lat;lon;timestamp;P1;durP1;ratioP1;P2;durP2;ratioP2
34960;SDS011;30789;52.030;7.110;2023-04-10T00:01:05;60.58;;;34.40;;
34960;SDS011;30789;52.030;7.110;2023-04-10T00:03:31;59.03;;;33.72;;
34960;SDS011;30789;52.030;7.110;2023-04-10T00:05:58;62.83;;;35.35;;
34960;SDS011;30789;52.030;7.110;2023-04-10T00:08:25;67.57;;;39.13;;
34960;SDS011;30789;52.030;7.110;2023-04-10T00:10:51;71.68;;;36.30;;
34960;SDS011;30789;52.030;7.110;2023-04-10T00:13:19;70.43;;;38.13;;
34960;SDS011;30789;52.030;7.110;2023-04-10T00:15:46;68.15;;;37.97;;
34960;SDS011;30789;52.030;7.110;2023-04-10T00:18:13;68.53;;;37.97;;
34960;SDS011;30789;52.030;7.110;2023-04-10T00:20:40;68.53;;;39.60;;
34960;SDS011;30789;52.030;7.110;2023-04-10T00:23:07;75.80;;;40.42;;
34960;SDS011;30789;52.030;7.110;2023-04-10T00:25:34;71.43;;;39.03;;
34960;SDS011;30789;52.030;7.110;2023-04-10T00:28:00;74.35;;;39.72;;
34960;SDS011;30789;52.030;7.110;2023-04-10T00:30:28;73.43;;;41.58;;
34960;SDS011;30789;52.030;7.110;2023-04-10T00:32:54;74.10;;;40.75;;
34960;SDS011;30789;52.030;7.110;2023-04-10T00:35:21;78.78;;;41.38;;
34960;SDS011;30789;52.030;7.110;2023-04-10T00:37:47;72.60;;;40.88;;
34960;SDS011;30789;52.030;7.110;2023-04-10T00:40:15;75.35;;;41.85;;
34960;SDS011;30789;52.030;7.110;2023-04-10T00:42:41;76.97;;;40.67;;
34960;SDS011;30789;52.030;7.110;2023-04-10T00:45:08;78.00;;;41.75;;
34960;SDS011;30789;52.030;7.110;2023-04-10T00:47:37;80.88;;;43.20;;
34960;SDS011;30789;52.030;7.110;2023-04-10T00:50:05;82.43;;;44.85;;
34960;SDS011;30789;52.030;7.110;2023-04-10T00:52:32;80.43;;;44.53;;
34960;SDS011;30789;52.030;7.110;2023-04-10T00:54:58;86.38;;;42.20;;
34960;SDS011;30789;52.030;7.110;2023-04-10T00:57:25;82.45;;;44.10;;
34960;SDS011;30789;52.030;7.110;2023-04-10T00:59:52;81.72;;;45.17;;
34960;SDS011;30789;52.030;7.110;2023-04-10T01:02:19;78.78;;;43.20;;
34960;SDS011;30789;52.030;7.110;2023-04-10T01:04:46;85.25;;;43.85;;
34960;SDS011;30789;52.030;7.110;2023-04-10T01:07:14;82.25;;;44.67;;
34960;SDS011;30789;52.030;7.110;2023-04-10T01:09:51;90.70;;;47.33;;
34960;SDS011;30789;52.030;7.110;2023-04-10T01:12:30;88.95;;;45.00;;
34960;SDS011;30789;52.030;7.110;2023-04-10T01:15:09;90.43;;;48.40;;
34960;SDS011;30789;52.030;7.110;2023-04-10T01:17:39;91.60;;;46.80;;
34960;SDS011;30789;52.030;7.110;2023-04-10T01:20:15;88.10;;;47.97;;
34960;SDS011;30789;52.030;7.110;2023-04-10T01:22:54;92.13;;;48.05;;
34960;SDS011;30789;52.030;7.110;2023-04-10T01:25:37;78.53;;;44.10;;
34960;SDS011;30789;52.030;7.110;2023-04-10T01:31:16;91.38;;;47.55;;
34960;SDS011;30789;52.030;7.110;2023-04-10T01:33:46;87.53;;;47.85;;
34960;SDS011;30789;52.030;7.110;2023-04-10T01:36:16;97.78;;;51.95;;
34960;SDS011;30789;52.030;7.110;2023-04-10T01:38:47;101.40;;;53.00;;
34960;SDS011;30789;52.030;7.110;2023-04-10T01:41:15;90.47;;;50.47;;
34960;SDS011;30789;52.030;7.110;2023-04-10T01:43:45;90.53;;;49.28;;
34960;SDS011;30789;52.030;7.110;2023-04-10T01:46:15;92.72;;;50.53;;
34960;SDS011;30789;52.030;7.110;2023-04-10T01:48:44;94.43;;;48.58;;
34960;SDS011;30789;52.030;7.110;2023-04-10T01:51:11;96.53;;;47.08;;
34960;SDS011;30789;52.030;7.110;2023-04-10T01:53:40;89.13;;;48.63;;
34960;SDS011;30789;52.030;7.110;2023-04-10T01:56:09;89.45;;;47.50;;
34960;SDS011;30789;52.030;7.110;2023-04-10T01:58:36;86.28;;;47.65;;
34960;SDS011;30789;52.030;7.110;2023-04-10T02:01:02;89.32;;;49.33;;
34960;SDS011;30789;52.030;7.110;2023-04-10T02:03:31;90.97;;;50.88;;
34960;SDS011;30789;52.030;7.110;2023-04-10T02:06:00;89.60;;;48.83;;
34960;SDS011;30789;52.030;7.110;2023-04-10T02:08:36;90.00;;;48.08;;
34960;SDS011;30789;52.030;7.110;2023-04-10T02:11:10;84.15;;;45.17;;
34960;SDS011;30789;52.030;7.110;2023-04-10T02:13:40;83.32;;;45.33;;
34960;SDS011;30789;52.030;7.110;2023-04-10T02:16:07;82.28;;;45.00;;
34960;SDS011;30789;52.030;7.110;2023-04-10T02:18:37;79.53;;;43.88;;
34960;SDS011;30789;52.030;7.110;2023-04-10T02:21:06;83.32;;;46.22;;
34960;SDS011;30789;52.030;7.110;2023-04-10T02:23:34;80.70;;;44.13;;
34960;SDS011;30789;52.030;7.110;2023-04-10T02:26:04;82.90;;;43.10;;
34960;SDS011;30789;52.030;7.110;2023-04-10T02:28:31;77.68;;;42.38;;
34960;SDS011;30789;52.030;7.110;2023-04-10T02:30:58;76.38;;;41.58;;
34960;SDS011;30789;52.030;7.110;2023-04-10T02:33:24;71.90;;;39.70;;
34960;SDS011;30789;52.030;7.110;2023-04-10T02:35:52;74.95;;;39.63;;
34960;SDS011;30789;52.030;7.110;2023-04-10T02:38:19;71.18;;;40.30;;
34960;SDS011;30789;52.030;7.110;2023-04-10T02:40:46;71.63;;;40.42;;
34960;SDS011;30789;52.030;7.110;2023-04-10T02:43:14;77.25;;;40.47;;
34960;SDS011;30789;52.030;7.110;2023-04-10T02:45:40;73.38;;;41.53;;
34960;SDS011;30789;52.030;7.110;2023-04-10T02:48:07;80.90;;;41.67;;
34960;SDS011;30789;52.030;7.110;2023-04-10T02:50:35;76.50;;;42.47;;
34960;SDS011;30789;52.030;7.110;2023-04-10T02:53:02;73.13;;;40.03;;
34960;SDS011;30789;52.030;7.110;2023-04-10T02:55:29;70.97;;;40.13;;
34960;SDS011;30789;52.030;7.110;2023-04-10T02:57:56;73.75;;;38.45;;
34960;SDS011;30789;52.030;7.110;2023-04-10T03:00:22;70.70;;;38.90;;
34960;SDS011;30789;52.030;7.110;2023-04-10T03:02:49;72.18;;;38.58;;
34960;SDS011;30789;52.030;7.110;2023-04-10T03:05:15;73.50;;;38.60;;
34960;SDS011;30789;52.030;7.110;2023-04-10T03:07:41;71.68;;;38.40;;
34960;SDS011;30789;52.030;7.110;2023-04-10T03:10:10;71.93;;;39.13;;
34960;SDS011;30789;52.030;7.110;2023-04-10T03:12:37;70.30;;;38.50;;
34960;SDS011;30789;52.030;7.110;2023-04-10T03:15:04;64.75;;;36.28;;
34960;SDS011;30789;52.030;7.110;2023-04-10T03:17:31;60.45;;;35.22;;
34960;SDS011;30789;52.030;7.110;2023-04-10T03:19:57;65.10;;;35.97;;
34960;SDS011;30789;52.030;7.110;2023-04-10T03:22:25;63.20;;;34.78;;
34960;SDS011;30789;52.030;7.110;2023-04-10T03:24:52;64.43;;;35.65;;
34960;SDS011;30789;52.030;7.110;2023-04-10T03:27:19;64.22;;;35.42;;
34960;SDS011;30789;52.030;7.110;2023-04-10T03:29:46;61.10;;;34.00;;
34960;SDS011;30789;52.030;7.110;2023-04-10T03:32:12;56.95;;;32.78;;
34960;SDS011;30789;52.030;7.110;2023-04-10T03:34:39;58.58;;;32.53;;
34960;SDS011;30789;52.030;7.110;2023-04-10T03:37:05;54.42;;;30.52;;
34960;SDS011;30789;52.030;7.110;2023-04-10T03:39:32;59.92;;;33.90;;
34960;SDS011;30789;52.030;7.110;2023-04-10T03:41:58;54.90;;;32.60;;
34960;SDS011;30789;52.030;7.110;2023-04-10T03:44:26;55.40;;;31.83;;
34960;SDS011;30789;52.030;7.110;2023-04-10T03:46:53;57.67;;;32.70;;
34960;SDS011;30789;52.030;7.110;2023-04-10T03:49:19;54.10;;;31.10;;
34960;SDS011;30789;52.030;7.110;2023-04-10T03:51:46;61.08;;;33.22;;
34960;SDS011;30789;52.030;7.110;2023-04-10T03:54:12;53.65;;;30.63;;
34960;SDS011;30789;52.030;7.110;2023-04-10T03:56:39;58.35;;;30.13;;
34960;SDS011;30789;52.030;7.110;2023-04-10T03:59:05;57.10;;;29.98;;
34960;SDS011;30789;52.030;7.110;2023-04-10T04:01:33;56.10;;;31.80;;
34960;SDS011;30789;52.030;7.110;2023-04-10T04:04:00;58.58;;;31.08;;
34960;SDS011;30789;52.030;7.110;2023-04-10T04:06:26;52.45;;;29.60;;
34960;SDS011;30789;52.030;7.110;2023-04-10T04:08:53;56.80;;;30.80;;
34960;SDS011;30789;52.030;7.110;2023-04-10T04:11:19;51.00;;;30.27;;
34960;SDS011;30789;52.030;7.110;2023-04-10T04:13:46;55.30;;;29.70;;
34960;SDS011;30789;52.030;7.110;2023-04-10T04:16:12;49.17;;;27.85;;
34960;SDS011;30789;52.030;7.110;2023-04-10T04:18:41;50.92;;;29.30;;
34960;SDS011;30789;52.030;7.110;2023-04-10T04:21:07;55.78;;;30.40;;
34960;SDS011;30789;52.030;7.110;2023-04-10T04:23:33;50.35;;;30.00;;
34960;SDS011;30789;52.030;7.110;2023-04-10T04:26:00;59.53;;;31.55;;
34960;SDS011;30789;52.030;7.110;2023-04-10T04:28:27;54.22;;;28.55;;
34960;SDS011;30789;52.030;7.110;2023-04-10T04:30:53;49.05;;;29.30;;
34960;SDS011;30789;52.030;7.110;2023-04-10T04:33:20;48.47;;;28.60;;
34960;SDS011;30789;52.030;7.110;2023-04-10T04:35:47;50.15;;;27.75;;
34960;SDS011;30789;52.030;7.110;2023-04-10T04:38:14;53.13;;;28.88;;
34960;SDS011;30789;52.030;7.110;2023-04-10T04:40:41;45.90;;;27.42;;
34960;SDS011;30789;52.030;7.110;2023-04-10T04:43:07;52.25;;;28.23;;
34960;SDS011;30789;52.030;7.110;2023-04-10T04:45:33;49.78;;;29.00;;
34960;SDS011;30789;52.030;7.110;2023-04-10T04:48:00;48.92;;;28.15;;
34960;SDS011;30789;52.030;7.110;2023-04-10T04:50:26;49.97;;;27.15;;
34960;SDS011;30789;52.030;7.110;2023-04-10T04:52:54;48.08;;;26.58;;
34960;SDS011;30789;52.030;7.110;2023-04-10T04:55:20;43.47;;;26.40;;
34960;SDS011;30789;52.030;7.110;2023-04-10T04:57:47;44.25;;;25.48;;
34960;SDS011;30789;52.030;7.110;2023-04-10T05:00:14;44.55;;;25.50;;
34960;SDS011;30789;52.030;7.110;2023-04-10T05:02:40;45.85;;;27.15;;
34960;SDS011;30789;52.030;7.110;2023-04-10T05:05:07;43.38;;;24.83;;
34960;SDS011;30789;52.030;7.110;2023-04-10T05:07:34;45.00;;;24.45;;
34960;SDS011;30789;52.030;7.110;2023-04-10T05:10:02;44.10;;;24.90;;
34960;SDS011;30789;52.030;7.110;2023-04-10T05:12:28;47.80;;;25.00;;
34960;SDS011;30789;52.030;7.110;2023-04-10T05:14:55;46.90;;;26.23;;
34960;SDS011;30789;52.030;7.110;2023-04-10T05:17:21;46.85;;;25.02;;
34960;SDS011;30789;52.030;7.110;2023-04-10T05:19:48;47.33;;;24.92;;
34960;SDS011;30789;52.030;7.110;2023-04-10T05:22:14;42.88;;;22.38;;
34960;SDS011;30789;52.030;7.110;2023-04-10T05:24:41;42.53;;;24.85;;
34960;SDS011;30789;52.030;7.110;2023-04-10T05:27:08;46.47;;;25.45;;
34960;SDS011;30789;52.030;7.110;2023-04-10T05:29:35;44.08;;;24.13;;
34960;SDS011;30789;52.030;7.110;2023-04-10T05:32:01;42.20;;;25.13;;
34960;SDS011;30789;52.030;7.110;2023-04-10T05:34:28;44.63;;;25.35;;
34960;SDS011;30789;52.030;7.110;2023-04-10T05:36:54;47.30;;;25.80;;
34960;SDS011;30789;52.030;7.110;2023-04-10T05:39:21;49.67;;;25.65;;
34960;SDS011;30789;52.030;7.110;2023-04-10T05:41:48;45.90;;;26.25;;
34960;SDS011;30789;52.030;7.110;2023-04-10T05:44:16;45.97;;;24.45;;
34960;SDS011;30789;52.030;7.110;2023-04-10T05:46:42;47.17;;;24.83;;
34960;SDS011;30789;52.030;7.110;2023-04-10T05:49:09;47.85;;;25.08;;
34960;SDS011;30789;52.030;7.110;2023-04-10T05:51:35;48.00;;;26.25;;
34960;SDS011;30789;52.030;7.110;2023-04-10T05:54:02;49.28;;;26.83;;
34960;SDS011;30789;52.030;7.110;2023-04-10T05:56:28;48.92;;;27.98;;
34960;SDS011;30789;52.030;7.110;2023-04-10T05:58:55;44.13;;;26.42;;
34960;SDS011;30789;52.030;7.110;2023-04-10T06:01:23;54.17;;;28.60;;
34960;SDS011;30789;52.030;7.110;2023-04-10T06:03:49;60.63;;;32.33;;
34960;SDS011;30789;52.030;7.110;2023-04-10T06:06:16;59.97;;;32.03;;
34960;SDS011;30789;52.030;7.110;2023-04-10T06:08:42;56.17;;;32.00;;
34960;SDS011;30789;52.030;7.110;2023-04-10T06:11:09;59.45;;;30.75;;
34960;SDS011;30789;52.030;7.110;2023-04-10T06:13:35;52.80;;;29.15;;
34960;SDS011;30789;52.030;7.110;2023-04-10T06:16:02;54.30;;;28.88;;
34960;SDS011;30789;52.030;7.110;2023-04-10T06:18:30;55.75;;;30.42;;
34960;SDS011;30789;52.030;7.110;2023-04-10T06:20:57;53.42;;;30.77;;
34960;SDS011;30789;52.030;7.110;2023-04-10T06:23:25;53.10;;;30.02;;
34960;SDS011;30789;52.030;7.110;2023-04-10T06:25:52;51.17;;;29.55;;
34960;SDS011;30789;52.030;7.110;2023-04-10T06:28:19;55.50;;;30.10;;
34960;SDS011;30789;52.030;7.110;2023-04-10T06:30:45;54.25;;;29.92;;
34960;SDS011;30789;52.030;7.110;2023-04-10T06:33:12;48.42;;;28.00;;
34960;SDS011;30789;52.030;7.110;2023-04-10T06:35:39;42.40;;;25.63;;
34960;SDS011;30789;52.030;7.110;2023-04-10T06:38:06;45.17;;;24.85;;
34960;SDS011;30789;52.030;7.110;2023-04-10T06:40:33;40.55;;;24.75;;
34960;SDS011;30789;52.030;7.110;2023-04-10T06:43:00;41.50;;;23.55;;
34960;SDS011;30789;52.030;7.110;2023-04-10T06:45:26;37.63;;;22.65;;
34960;SDS011;30789;52.030;7.110;2023-04-10T06:47:53;40.40;;;21.35;;
34960;SDS011;30789;52.030;7.110;2023-04-10T06:50:19;35.25;;;21.35;;
34960;SDS011;30789;52.030;7.110;2023-04-10T06:52:47;34.47;;;20.60;;
34960;SDS011;30789;52.030;7.110;2023-04-10T06:55:14;37.72;;;22.75;;
34960;SDS011;30789;52.030;7.110;2023-04-10T06:57:41;40.58;;;22.27;;
34960;SDS011;30789;52.030;7.110;2023-04-10T07:00:08;33.38;;;19.75;;
34960;SDS011;30789;52.030;7.110;2023-04-10T07:02:35;33.15;;;19.77;;
34960;SDS011;30789;52.030;7.110;2023-04-10T07:05:01;33.80;;;19.20;;
34960;SDS011;30789;52.030;7.110;2023-04-10T07:07:28;32.40;;;17.60;;
34960;SDS011;30789;52.030;7.110;2023-04-10T07:09:56;30.60;;;17.80;;
34960;SDS011;30789;52.030;7.110;2023-04-10T07:12:23;32.65;;;18.75;;
34960;SDS011;30789;52.030;7.110;2023-04-10T07:14:50;27.25;;;18.15;;
34960;SDS011;30789;52.030;7.110;2023-04-10T07:17:17;29.83;;;17.40;;
34960;SDS011;30789;52.030;7.110;2023-04-10T07:19:43;29.50;;;17.65;;
34960;SDS011;30789;52.030;7.110;2023-04-10T07:22:10;29.73;;;17.67;;
34960;SDS011;30789;52.030;7.110;2023-04-10T07:24:37;30.48;;;19.02;;
34960;SDS011;30789;52.030;7.110;2023-04-10T07:27:04;30.48;;;18.02;;
34960;SDS011;30789;52.030;7.110;2023-04-10T07:29:31;30.85;;;18.67;;
34960;SDS011;30789;52.030;7.110;2023-04-10T07:31:57;33.42;;;19.70;;
34960;SDS011;30789;52.030;7.110;2023-04-10T07:34:24;33.40;;;20.13;;
34960;SDS011;30789;52.030;7.110;2023-04-10T07:36:51;36.03;;;19.98;;
34960;SDS011;30789;52.030;7.110;2023-04-10T07:39:18;37.97;;;20.83;;
34960;SDS011;30789;52.030;7.110;2023-04-10T07:41:44;32.67;;;19.88;;
34960;SDS011;30789;52.030;7.110;2023-04-10T07:44:12;34.38;;;19.70;;
34960;SDS011;30789;52.030;7.110;2023-04-10T07:46:39;33.67;;;19.98;;
34960;SDS011;30789;52.030;7.110;2023-04-10T07:49:07;36.67;;;19.70;;
34960;SDS011;30789;52.030;7.110;2023-04-10T07:51:33;32.67;;;19.23;;
34960;SDS011;30789;52.030;7.110;2023-04-10T07:54:01;33.70;;;18.88;;
34960;SDS011;30789;52.030;7.110;2023-04-10T07:56:28;30.00;;;17.77;;
34960;SDS011;30789;52.030;7.110;2023-04-10T07:58:57;27.13;;;16.40;;
34960;SDS011;30789;52.030;7.110;2023-04-10T08:01:26;30.95;;;16.98;;
34960;SDS011;30789;52.030;7.110;2023-04-10T08:03:53;26.13;;;16.35;;
34960;SDS011;30789;52.030;7.110;2023-04-10T08:06:20;25.67;;;15.98;;
34960;SDS011;30789;52.030;7.110;2023-04-10T08:08:47;26.90;;;16.60;;
34960;SDS011;30789;52.030;7.110;2023-04-10T08:11:21;26.50;;;16.15;;
34960;SDS011;30789;52.030;7.110;2023-04-10T08:13:49;22.63;;;14.38;;
34960;SDS011;30789;52.030;7.110;2023-04-10T08:16:17;25.10;;;14.50;;
34960;SDS011;30789;52.030;7.110;2023-04-10T08:18:45;21.90;;;13.30;;
34960;SDS011;30789;52.030;7.110;2023-04-10T08:21:12;18.73;;;13.00;;
34960;SDS011;30789;52.030;7.110;2023-04-10T08:23:38;23.33;;;13.27;;
34960;SDS011;30789;52.030;7.110;2023-04-10T08:26:05;18.08;;;12.02;;
34960;SDS011;30789;52.030;7.110;2023-04-10T08:28:32;21.85;;;12.60;;
34960;SDS011;30789;52.030;7.110;2023-04-10T08:30:58;16.15;;;10.85;;
34960;SDS011;30789;52.030;7.110;2023-04-10T08:33:25;16.38;;;9.60;;
34960;SDS011;30789;52.030;7.110;2023-04-10T08:35:53;15.90;;;10.50;;
34960;SDS011;30789;52.030;7.110;2023-04-10T08:38:19;14.15;;;9.15;;
34960;SDS011;30789;52.030;7.110;2023-04-10T08:40:48;11.57;;;7.97;;
34960;SDS011;30789;52.030;7.110;2023-04-10T08:43:15;13.70;;;8.38;;
34960;SDS011;30789;52.030;7.110;2023-04-10T08:45:42;14.10;;;8.38;;
34960;SDS011;30789;52.030;7.110;2023-04-10T08:48:10;15.30;;;8.57;;
34960;SDS011;30789;52.030;7.110;2023-04-10T08:50:37;12.15;;;8.50;;
34960;SDS011;30789;52.030;7.110;2023-04-10T08:53:09;13.40;;;9.15;;
34960;SDS011;30789;52.030;7.110;2023-04-10T08:55:37;16.02;;;8.00;;
34960;SDS011;30789;52.030;7.110;2023-04-10T08:58:04;13.23;;;7.68;;
34960;SDS011;30789;52.030;7.110;2023-04-10T09:00:32;12.68;;;8.10;;
34960;SDS011;30789;52.030;7.110;2023-04-10T09:02:59;12.48;;;7.95;;
34960;SDS011;30789;52.030;7.110;2023-04-10T09:05:29;13.98;;;7.95;;
34960;SDS011;30789;52.030;7.110;2023-04-10T09:07:56;12.30;;;8.25;;
34960;SDS011;30789;52.030;7.110;2023-04-10T09:10:23;11.20;;;7.53;;
34960;SDS011;30789;52.030;7.110;2023-04-10T09:12:50;10.93;;;8.35;;
34960;SDS011;30789;52.030;7.110;2023-04-10T09:15:17;12.68;;;8.43;;
34960;SDS011;30789;52.030;7.110;2023-04-10T09:17:53;12.13;;;7.60;;
34960;SDS011;30789;52.030;7.110;2023-04-10T09:20:24;10.55;;;5.95;;
34960;SDS011;30789;52.030;7.110;2023-04-10T09:22:52;7.32;;;4.93;;
34960;SDS011;30789;52.030;7.110;2023-04-10T09:25:30;5.40;;;4.07;;
34960;SDS011;30789;52.030;7.110;2023-04-10T09:27:59;4.38;;;3.35;;
34960;SDS011;30789;52.030;7.110;2023-04-10T09:30:31;5.15;;;3.45;;
34960;SDS011;30789;52.030;7.110;2023-04-10T09:32:59;4.47;;;3.17;;
34960;SDS011;30789;52.030;7.110;2023-04-10T09:35:33;4.53;;;3.45;;
34960;SDS011;30789;52.030;7.110;2023-04-10T09:38:12;4.75;;;3.20;;
34960;SDS011;30789;52.030;7.110;2023-04-10T09:40:41;5.72;;;3.72;;
34960;SDS011;30789;52.030;7.110;2023-04-10T09:43:18;3.63;;;3.00;;
34960;SDS011;30789;52.030;7.110;2023-04-10T09:45:46;4.10;;;3.22;;
34960;SDS011;30789;52.030;7.110;2023-04-10T09:48:13;3.80;;;3.10;;
34960;SDS011;30789;52.030;7.110;2023-04-10T09:50:40;3.63;;;2.88;;
34960;SDS011;30789;52.030;7.110;2023-04-10T09:53:06;4.10;;;3.17;;
34960;SDS011;30789;52.030;7.110;2023-04-10T09:55:33;3.83;;;3.00;;
34960;SDS011;30789;52.030;7.110;2023-04-10T09:58:02;3.63;;;2.85;;
34960;SDS011;30789;52.030;7.110;2023-04-10T10:00:29;4.05;;;2.85;;
34960;SDS011;30789;52.030;7.110;2023-04-10T10:02:58;5.45;;;3.17;;
34960;SDS011;30789;52.030;7.110;2023-04-10T10:05:29;4.18;;;3.22;;
34960;SDS011;30789;52.030;7.110;2023-04-10T10:07:57;3.00;;;2.40;;
34960;SDS011;30789;52.030;7.110;2023-04-10T10:10:23;2.72;;;2.47;;
34960;SDS011;30789;52.030;7.110;2023-04-10T10:12:52;4.75;;;2.67;;
34960;SDS011;30789;52.030;7.110;2023-04-10T10:15:25;3.10;;;2.78;;
34960;SDS011;30789;52.030;7.110;2023-04-10T10:18:02;3.17;;;2.88;;
34960;SDS011;30789;52.030;7.110;2023-04-10T10:20:32;3.22;;;2.50;;
34960;SDS011;30789;52.030;7.110;2023-04-10T10:23:01;3.10;;;2.58;;
34960;SDS011;30789;52.030;7.110;2023-04-10T10:25:28;3.67;;;2.30;;
34960;SDS011;30789;52.030;7.110;2023-04-10T10:27:56;3.08;;;2.60;;
34960;SDS011;30789;52.030;7.110;2023-04-10T10:30:29;3.97;;;2.88;;
34960;SDS011;30789;52.030;7.110;2023-04-10T10:32:57;6.22;;;3.97;;
34960;SDS011;30789;52.030;7.110;2023-04-10T10:35:24;3.42;;;2.72;;
34960;SDS011;30789;52.030;7.110;2023-04-10T10:37:51;4.70;;;2.83;;
34960;SDS011;30789;52.030;7.110;2023-04-10T10:40:19;2.75;;;2.22;;
34960;SDS011;30789;52.030;7.110;2023-04-10T10:42:55;4.07;;;3.03;;
34960;SDS011;30789;52.030;7.110;2023-04-10T10:45:33;3.33;;;2.60;;
34960;SDS011;30789;52.030;7.110;2023-04-10T10:48:04;3.55;;;2.70;;
34960;SDS011;30789;52.030;7.110;2023-04-10T10:53:33;4.40;;;2.67;;
34960;SDS011;30789;52.030;7.110;2023-04-10T10:58:58;2.92;;;2.50;;
34960;SDS011;30789;52.030;7.110;2023-04-10T11:01:27;4.00;;;2.20;;
34960;SDS011;30789;52.030;7.110;2023-04-10T11:03:54;2.70;;;2.25;;
34960;SDS011;30789;52.030;7.110;2023-04-10T11:06:21;3.72;;;2.60;;
34960;SDS011;30789;52.030;7.110;2023-04-10T11:12:13;2.85;;;2.30;;
34960;SDS011;30789;52.030;7.110;2023-04-10T11:14:41;2.75;;;2.53;;
34960;SDS011;30789;52.030;7.110;2023-04-10T11:17:10;2.90;;;2.60;;
34960;SDS011;30789;52.030;7.110;2023-04-10T11:19:55;2.47;;;2.28;;
34960;SDS011;30789;52.030;7.110;2023-04-10T11:22:24;3.25;;;2.47;;
34960;SDS011;30789;52.030;7.110;2023-04-10T11:24:55;3.45;;;2.67;;
34960;SDS011;30789;52.030;7.110;2023-04-10T11:30:25;3.50;;;2.50;;
34960;SDS011;30789;52.030;7.110;2023-04-10T11:32:57;2.40;;;2.10;;
34960;SDS011;30789;52.030;7.110;2023-04-10T11:35:24;3.15;;;2.45;;
34960;SDS011;30789;52.030;7.110;2023-04-10T11:38:06;3.83;;;2.92;;
34960;SDS011;30789;52.030;7.110;2023-04-10T11:40:33;3.13;;;2.25;;
34960;SDS011;30789;52.030;7.110;2023-04-10T11:43:10;3.70;;;2.05;;
34960;SDS011;30789;52.030;7.110;2023-04-10T11:45:37;2.75;;;1.95;;
34960;SDS011;30789;52.030;7.110;2023-04-10T11:48:06;2.67;;;2.08;;
34960;SDS011;30789;52.030;7.110;2023-04-10T11:50:32;2.08;;;1.88;;
34960;SDS011;30789;52.030;7.110;2023-04-10T11:53:00;2.42;;;1.98;;
34960;SDS011;30789;52.030;7.110;2023-04-10T11:55:34;2.92;;;1.92;;
34960;SDS011;30789;52.030;7.110;2023-04-10T11:58:02;3.13;;;2.38;;
34960;SDS011;30789;52.030;7.110;2023-04-10T12:00:28;2.58;;;2.20;;
34960;SDS011;30789;52.030;7.110;2023-04-10T12:02:55;2.78;;;2.25;;
34960;SDS011;30789;52.030;7.110;2023-04-10T12:05:23;2.42;;;2.10;;
34960;SDS011;30789;52.030;7.110;2023-04-10T12:07:50;3.42;;;2.58;;
34960;SDS011;30789;52.030;7.110;2023-04-10T12:10:16;2.33;;;2.13;;
34960;SDS011;30789;52.030;7.110;2023-04-10T12:12:43;2.85;;;2.10;;
34960;SDS011;30789;52.030;7.110;2023-04-10T12:15:25;2.83;;;2.15;;
34960;SDS011;30789;52.030;7.110;2023-04-10T12:17:52;3.30;;;2.10;;
34960;SDS011;30789;52.030;7.110;2023-04-10T12:20:19;3.22;;;2.20;;
34960;SDS011;30789;52.030;7.110;2023-04-10T12:22:51;2.97;;;2.13;;
34960;SDS011;30789;52.030;7.110;2023-04-10T12:25:20;2.20;;;2.00;;
34960;SDS011;30789;52.030;7.110;2023-04-10T12:27:47;2.40;;;1.95;;
34960;SDS011;30789;52.030;7.110;2023-04-10T12:30:15;2.20;;;1.80;;
34960;SDS011;30789;52.030;7.110;2023-04-10T12:32:42;3.70;;;2.22;;
34960;SDS011;30789;52.030;7.110;2023-04-10T12:35:16;2.40;;;1.90;;
34960;SDS011;30789;52.030;7.110;2023-04-10T12:37:46;1.88;;;1.65;;
34960;SDS011;30789;52.030;7.110;2023-04-10T12:40:15;2.28;;;1.63;;
34960;SDS011;30789;52.030;7.110;2023-04-10T12:42:42;3.13;;;1.70;;
34960;SDS011;30789;52.030;7.110;2023-04-10T12:45:09;2.38;;;2.00;;
34960;SDS011;30789;52.030;7.110;2023-04-10T12:47:41;1.75;;;1.40;;
34960;SDS011;30789;52.030;7.110;2023-04-10T12:50:09;2.50;;;1.80;;
34960;SDS011;30789;52.030;7.110;2023-04-10T12:52:37;6.28;;;1.40;;
34960;SDS011;30789;52.030;7.110;2023-04-10T12:55:09;2.55;;;1.73;;
34960;SDS011;30789;52.030;7.110;2023-04-10T12:57:41;1.55;;;1.45;;
34960;SDS011;30789;52.030;7.110;2023-04-10T13:00:09;1.85;;;1.67;;
34960;SDS011;30789;52.030;7.110;2023-04-10T13:02:38;2.03;;;1.48;;
34960;SDS011;30789;52.030;7.110;2023-04-10T13:05:06;1.73;;;1.58;;
34960;SDS011;30789;52.030;7.110;2023-04-10T13:07:33;2.17;;;1.98;;
34960;SDS011;30789;52.030;7.110;2023-04-10T13:10:01;3.33;;;2.10;;
34960;SDS011;30789;52.030;7.110;2023-04-10T13:12:28;1.85;;;1.40;;
34960;SDS011;30789;52.030;7.110;2023-04-10T13:14:56;1.92;;;1.70;;
34960;SDS011;30789;52.030;7.110;2023-04-10T13:17:23;2.45;;;1.95;;
34960;SDS011;30789;52.030;7.110;2023-04-10T13:19:50;2.88;;;2.47;;
34960;SDS011;30789;52.030;7.110;2023-04-10T13:22:17;2.20;;;2.00;;
34960;SDS011;30789;52.030;7.110;2023-04-10T13:24:44;4.53;;;2.13;;
34960;SDS011;30789;52.030;7.110;2023-04-10T13:27:11;4.40;;;2.13;;
34960;SDS011;30789;52.030;7.110;2023-04-10T13:29:39;3.15;;;1.85;;
34960;SDS011;30789;52.030;7.110;2023-04-10T13:32:08;2.33;;;1.42;;
34960;SDS011;30789;52.030;7.110;2023-04-10T13:34:35;1.85;;;1.60;;
34960;SDS011;30789;52.030;7.110;2023-04-10T13:37:01;2.05;;;1.70;;
34960;SDS011;30789;52.030;7.110;2023-04-10T13:39:28;3.10;;;1.90;;
34960;SDS011;30789;52.030;7.110;2023-04-10T13:41:55;2.08;;;1.88;;
34960;SDS011;30789;52.030;7.110;2023-04-10T13:44:22;1.92;;;1.52;;
34960;SDS011;30789;52.030;7.110;2023-04-10T13:46:49;2.15;;;1.70;;
34960;SDS011;30789;52.030;7.110;2023-04-10T13:49:18;2.20;;;2.00;;
34960;SDS011;30789;52.030;7.110;2023-04-10T13:51:46;1.83;;;1.58;;
34960;SDS011;30789;52.030;7.110;2023-04-10T13:54:12;2.47;;;2.03;;
34960;SDS011;30789;52.030;7.110;2023-04-10T13:56:41;3.05;;;1.92;;
34960;SDS011;30789;52.030;7.110;2023-04-10T13:59:08;2.90;;;1.90;;
34960;SDS011;30789;52.030;7.110;2023-04-10T14:01:34;3.42;;;2.17;;
34960;SDS011;30789;52.030;7.110;2023-04-10T14:04:01;2.13;;;1.73;;
34960;SDS011;30789;52.030;7.110;2023-04-10T14:06:29;2.25;;;1.90;;
34960;SDS011;30789;52.030;7.110;2023-04-10T14:08:56;2.85;;;2.17;;
34960;SDS011;30789;52.030;7.110;2023-04-10T14:11:23;3.10;;;1.67;;
34960;SDS011;30789;52.030;7.110;2023-04-10T14:13:50;2.53;;;1.65;;
34960;SDS011;30789;52.030;7.110;2023-04-10T14:16:16;2.67;;;1.90;;
34960;SDS011;30789;52.030;7.110;2023-04-10T14:18:43;2.25;;;1.90;;
34960;SDS011;30789;52.030;7.110;2023-04-10T14:21:09;2.88;;;2.00;;
34960;SDS011;30789;52.030;7.110;2023-04-10T14:23:38;4.00;;;1.77;;
34960;SDS011;30789;52.030;7.110;2023-04-10T14:26:06;4.40;;;2.22;;
34960;SDS011;30789;52.030;7.110;2023-04-10T14:28:32;6.10;;;1.98;;
34960;SDS011;30789;52.030;7.110;2023-04-10T14:30:59;2.28;;;1.70;;
34960;SDS011;30789;52.030;7.110;2023-04-10T14:33:26;2.22;;;1.52;;
34960;SDS011;30789;52.030;7.110;2023-04-10T14:35:52;2.10;;;1.90;;
34960;SDS011;30789;52.030;7.110;2023-04-10T14:38:19;3.22;;;2.00;;
34960;SDS011;30789;52.030;7.110;2023-04-10T14:40:47;2.38;;;1.90;;
34960;SDS011;30789;52.030;7.110;2023-04-10T14:43:14;2.75;;;1.73;;
34960;SDS011;30789;52.030;7.110;2023-04-10T14:45:40;2.15;;;1.63;;
34960;SDS011;30789;52.030;7.110;2023-04-10T14:48:07;1.90;;;1.70;;
34960;SDS011;30789;52.030;7.110;2023-04-10T14:50:34;2.58;;;1.83;;